createdAt,value
2022-08-27T00:01:44.971Z,69.22
2022-08-27T00:04:12.896Z,69.02
2022-08-27T00:06:40.505Z,67.56
2022-08-27T00:09:08.801Z,68.39
2022-08-27T00:11:36.612Z,67.79
2022-08-27T00:14:04.514Z,67.51
2022-08-27T00:16:32.667Z,67.53
2022-08-27T00:19:00.639Z,66.68
2022-08-27T00:21:28.125Z,67.10
2022-08-27T00:23:55.761Z,66.96
2022-08-27T00:26:23.747Z,66.79
2022-08-27T00:28:51.548Z,68.39
2022-08-27T00:31:19.222Z,69.07
2022-08-27T00:33:51.402Z,68.58
2022-08-27T00:36:18.966Z,69.85
2022-08-27T00:38:46.492Z,68.52
2022-08-27T00:41:15.716Z,70.05
2022-08-27T00:43:50.462Z,69.90
2022-08-27T00:46:25.442Z,69.56
2022-08-27T00:48:55.483Z,67.76
2022-08-27T00:51:24.286Z,66.10
2022-08-27T00:53:52.290Z,66.62
2022-08-27T00:56:23.366Z,68.61
2022-08-27T00:58:53.992Z,67.61
2022-08-27T01:01:28.666Z,68.09
2022-08-27T01:03:59.890Z,68.12
2022-08-27T01:06:32.854Z,67.11
2022-08-27T01:09:10.623Z,68.72
2022-08-27T01:11:38.930Z,69.57
2022-08-27T01:14:07.229Z,69.77
2022-08-27T01:16:40.263Z,68.30
2022-08-27T01:19:11.454Z,68.32
2022-08-27T01:21:59.667Z,70.37
2022-08-27T01:24:35.898Z,68.52
2022-08-27T01:27:05.332Z,65.89
2022-08-27T01:29:36.737Z,66.60
2022-08-27T01:32:11.060Z,65.56
2022-08-27T01:34:38.785Z,65.77
2022-08-27T01:37:08.254Z,66.81
2022-08-27T01:39:37.410Z,68.11
2022-08-27T01:42:11.315Z,68.65
2022-08-27T01:44:47.841Z,68.58
2022-08-27T01:47:17.286Z,68.17
2022-08-27T01:49:44.891Z,69.43
2022-08-27T01:52:13.583Z,69.90
2022-08-27T01:54:42.493Z,67.13
2022-08-27T01:57:10.555Z,69.91
2022-08-27T01:59:39.357Z,72.06
2022-08-27T02:02:09.135Z,71.89
2022-08-27T02:04:37.265Z,70.88
2022-08-27T02:07:05.311Z,69.27
2022-08-27T02:09:33.276Z,68.97
2022-08-27T02:12:01.405Z,70.24
2022-08-27T02:14:29.219Z,70.36
2022-08-27T02:16:57.138Z,69.59
2022-08-27T02:19:24.908Z,69.85
2022-08-27T02:21:53.351Z,68.59
2022-08-27T02:24:20.871Z,67.92
2022-08-27T02:26:49.211Z,68.35
2022-08-27T02:29:16.636Z,69.25
2022-08-27T02:31:44.225Z,70.52
2022-08-27T02:34:30.664Z,69.13
2022-08-27T02:36:58.561Z,68.69
2022-08-27T02:39:26.351Z,69.58
2022-08-27T02:41:55.078Z,70.81
2022-08-27T02:44:22.513Z,72.99
2022-08-27T02:46:50.239Z,72.26
2022-08-27T02:49:21.105Z,72.62
2022-08-27T02:51:48.563Z,74.00
2022-08-27T02:54:17.699Z,72.56
2022-08-27T02:56:45.258Z,72.52
2022-08-27T02:59:12.688Z,70.55
2022-08-27T03:01:40.542Z,69.43
2022-08-27T03:04:08.111Z,68.20
2022-08-27T03:06:35.594Z,68.49
2022-08-27T03:09:04.150Z,67.10
2022-08-27T03:11:32.294Z,67.17
2022-08-27T03:13:59.821Z,66.34
2022-08-27T03:16:27.671Z,70.41
2022-08-27T03:18:55.351Z,67.97
2022-08-27T03:21:26.356Z,68.97
2022-08-27T03:23:54.390Z,67.43
2022-08-27T03:26:22.514Z,66.75
2022-08-27T03:28:50.077Z,67.54
2022-08-27T03:31:26.949Z,68.29
2022-08-27T03:33:57.635Z,67.83
2022-08-27T03:36:27.299Z,70.15
2022-08-27T03:38:54.791Z,70.97
2022-08-27T03:41:23.495Z,69.91
2022-08-27T03:44:12.044Z,69.85
2022-08-27T03:46:50.646Z,71.11
2022-08-27T03:49:20.630Z,69.82
2022-08-27T03:51:51.436Z,69.78
2022-08-27T03:54:19.661Z,70.51
2022-08-27T03:56:47.200Z,71.12
2022-08-27T03:59:15.891Z,70.59
2022-08-27T04:01:45.003Z,70.77
2022-08-27T04:04:13.220Z,71.66
2022-08-27T04:06:41.321Z,69.19
2022-08-27T04:09:08.843Z,68.50
2022-08-27T04:11:36.982Z,68.76
2022-08-27T04:14:13.872Z,69.44
2022-08-27T04:16:52.512Z,68.96
2022-08-27T04:19:22.866Z,70.10
2022-08-27T04:21:53.097Z,69.16
2022-08-27T04:24:20.527Z,70.08
2022-08-27T04:26:48.059Z,70.32
2022-08-27T04:29:16.182Z,70.87
2022-08-27T04:31:43.757Z,71.32
2022-08-27T04:34:11.279Z,72.01
2022-08-27T04:36:39.004Z,71.16
2022-08-27T04:39:06.551Z,71.20
2022-08-27T04:41:34.380Z,71.49
2022-08-27T04:44:09.319Z,71.42
2022-08-27T04:46:37.840Z,73.24
2022-08-27T04:49:10.452Z,73.04
2022-08-27T04:51:40.157Z,73.32
2022-08-27T04:54:08.592Z,72.32
2022-08-27T04:56:37.246Z,70.41
2022-08-27T04:59:06.811Z,70.14
2022-08-27T05:01:34.678Z,69.12
2022-08-27T05:04:02.847Z,67.77
2022-08-27T05:06:30.987Z,66.35
2022-08-27T05:08:58.957Z,66.56
2022-08-27T05:11:32.173Z,68.61
2022-08-27T05:14:05.683Z,66.95
2022-08-27T05:16:34.510Z,65.88
2022-08-27T05:19:04.215Z,64.89
2022-08-27T05:21:34.457Z,64.31
2022-08-27T05:24:04.186Z,64.73
2022-08-27T05:26:33.829Z,65.59
2022-08-27T05:29:02.215Z,63.04
2022-08-27T05:31:30.435Z,63.37
2022-08-27T05:33:57.992Z,64.12
2022-08-27T05:36:31.916Z,61.50
2022-08-27T05:39:01.525Z,61.19
2022-08-27T05:41:34.198Z,61.55
2022-08-27T05:44:24.002Z,64.24
2022-08-27T05:46:53.458Z,63.16
2022-08-27T05:49:21.633Z,62.57
2022-08-27T05:51:49.065Z,62.36
2022-08-27T05:54:19.850Z,60.54
2022-08-27T05:56:51.870Z,59.71
2022-08-27T05:59:38.904Z,60.94
2022-08-27T06:02:07.063Z,59.76
2022-08-27T06:04:35.075Z,59.48
2022-08-27T06:07:02.643Z,58.01
2022-08-27T06:09:30.711Z,56.84
2022-08-27T06:12:01.463Z,56.42
2022-08-27T06:14:29.981Z,57.35
2022-08-27T06:17:00.210Z,58.04
2022-08-27T06:19:27.651Z,56.99
2022-08-27T06:22:00.761Z,56.33
2022-08-27T06:24:41.511Z,56.57
2022-08-27T06:27:12.910Z,55.80
2022-08-27T06:29:41.037Z,54.45
2022-08-27T06:32:09.683Z,57.56
2022-08-27T06:34:37.964Z,54.71
2022-08-27T06:37:06.323Z,54.49
2022-08-27T06:39:33.748Z,54.49
2022-08-27T06:42:01.190Z,51.66
2022-08-27T06:44:32.744Z,51.16
2022-08-27T06:47:00.308Z,50.78
2022-08-27T06:49:27.827Z,50.94
2022-08-27T06:51:55.567Z,50.11
2022-08-27T06:54:23.020Z,51.22
2022-08-27T06:56:50.747Z,50.28
2022-08-27T06:59:19.186Z,50.22
2022-08-27T07:01:52.721Z,50.26
2022-08-27T07:04:22.816Z,49.88
2022-08-27T07:06:59.432Z,49.58
2022-08-27T07:09:27.186Z,49.06
2022-08-27T07:11:55.196Z,49.27
2022-08-27T07:14:22.702Z,48.30
2022-08-27T07:16:51.897Z,47.48
2022-08-27T07:19:20.555Z,47.51
2022-08-27T07:21:50.706Z,47.08
2022-08-27T07:24:19.172Z,46.39
2022-08-27T07:26:47.170Z,46.33
2022-08-27T07:29:16.179Z,44.54
2022-08-27T07:31:43.818Z,44.71
2022-08-27T07:34:11.541Z,44.20
2022-08-27T07:36:39.658Z,41.93
2022-08-27T07:39:08.119Z,39.82
2022-08-27T07:41:58.654Z,40.56
2022-08-27T07:44:28.261Z,39.75
2022-08-27T07:47:02.508Z,39.68
2022-08-27T07:49:31.545Z,36.91
2022-08-27T07:51:59.448Z,37.06
2022-08-27T07:54:26.953Z,34.35
2022-08-27T07:56:55.991Z,32.77
2022-08-27T07:59:26.063Z,29.38
2022-08-27T08:01:55.970Z,27.54
2022-08-27T08:04:24.719Z,25.90
2022-08-27T08:06:54.488Z,25.67
2022-08-27T08:09:24.133Z,25.11
2022-08-27T08:11:52.370Z,23.30
2022-08-27T08:14:20.048Z,23.65
2022-08-27T08:16:48.073Z,22.99
2022-08-27T08:19:15.903Z,22.79
2022-08-27T08:21:43.588Z,20.23
2022-08-27T08:24:11.092Z,21.19
2022-08-27T08:26:40.691Z,21.18
2022-08-27T08:29:08.138Z,21.29
2022-08-27T08:31:43.119Z,21.14
2022-08-27T08:34:14.548Z,21.48
2022-08-27T08:36:51.051Z,20.92
2022-08-27T08:39:23.176Z,21.30
2022-08-27T08:41:54.577Z,22.97
2022-08-27T08:44:26.553Z,22.88
2022-08-27T08:46:58.429Z,23.71
2022-08-27T08:49:53.493Z,24.74
2022-08-27T08:52:41.498Z,24.61
2022-08-27T08:55:40.187Z,24.94
2022-08-27T08:58:10.178Z,24.32
2022-08-27T09:00:39.840Z,24.94
2022-08-27T09:03:07.797Z,25.39
2022-08-27T09:05:37.648Z,25.01
2022-08-27T09:08:33.027Z,24.63
2022-08-27T09:11:17.285Z,25.93
2022-08-27T09:14:01.170Z,25.89
2022-08-27T09:16:28.993Z,26.24
2022-08-27T09:18:56.409Z,25.96
2022-08-27T09:21:42.226Z,26.54
2022-08-27T09:24:32.738Z,26.62
2022-08-27T09:27:00.194Z,26.23
2022-08-27T09:29:29.549Z,27.31
2022-08-27T09:32:05.252Z,27.49
2022-08-27T09:34:43.993Z,26.79
2022-08-27T09:37:16.385Z,27.17
2022-08-27T09:39:53.072Z,27.02
2022-08-27T09:42:27.710Z,26.67
2022-08-27T09:44:56.111Z,25.94
2022-08-27T09:47:24.610Z,26.31
2022-08-27T09:50:09.104Z,26.78
2022-08-27T09:52:51.458Z,25.09
2022-08-27T09:55:44.509Z,25.59
2022-08-27T09:58:44.620Z,25.34
2022-08-27T10:01:26.825Z,23.98
2022-08-27T10:04:04.914Z,24.16
2022-08-27T10:06:32.968Z,23.98
2022-08-27T10:09:30.789Z,23.21
2022-08-27T10:12:14.262Z,24.63
2022-08-27T10:14:46.462Z,22.91
2022-08-27T10:17:19.739Z,23.46
2022-08-27T10:20:08.818Z,21.48
2022-08-27T10:22:59.963Z,20.58
2022-08-27T10:25:46.672Z,21.99
2022-08-27T10:28:26.535Z,20.88
2022-08-27T10:31:31.444Z,22.04
2022-08-27T10:33:59.404Z,21.34
2022-08-27T10:36:36.654Z,20.33
2022-08-27T10:39:22.802Z,21.78
2022-08-27T10:41:57.180Z,20.79
2022-08-27T10:44:40.252Z,20.83
2022-08-27T10:47:10.826Z,20.62
2022-08-27T10:49:50.625Z,21.37
2022-08-27T10:52:42.120Z,21.63
2022-08-27T10:55:34.197Z,20.32
2022-08-27T10:58:29.826Z,21.54
2022-08-27T11:01:28.589Z,20.80
2022-08-27T11:04:14.327Z,20.95
2022-08-27T11:06:45.776Z,22.28
2022-08-27T11:09:18.199Z,22.46
2022-08-27T11:12:13.397Z,23.39
2022-08-27T11:15:04.142Z,24.16
2022-08-27T11:17:33.226Z,23.65
2022-08-27T11:20:39.596Z,21.59
2022-08-27T11:23:10.663Z,20.60
2022-08-27T11:25:54.026Z,21.24
2022-08-27T11:28:30.051Z,21.75
2022-08-27T11:31:21.158Z,22.54
2022-08-27T11:34:04.358Z,22.82
2022-08-27T11:36:54.364Z,21.66
2022-08-27T11:39:47.568Z,22.28
2022-08-27T11:42:42.031Z,22.04
2022-08-27T11:45:21.946Z,20.82
2022-08-27T11:48:18.377Z,20.39
2022-08-27T11:51:22.758Z,21.62
2022-08-27T11:53:59.868Z,21.80
2022-08-27T11:56:30.189Z,21.35
2022-08-27T11:59:19.824Z,21.12
2022-08-27T12:01:48.859Z,21.56
2022-08-27T12:04:32.756Z,21.26
2022-08-27T12:07:25.164Z,22.14
2022-08-27T12:10:17.310Z,23.56
2022-08-27T12:13:30.091Z,22.55
2022-08-27T12:16:12.757Z,21.43
2022-08-27T12:19:13.716Z,23.46
2022-08-27T12:21:47.620Z,22.02
2022-08-27T12:24:39.766Z,22.38
2022-08-27T12:27:15.750Z,22.22
2022-08-27T12:29:52.512Z,22.69
2022-08-27T12:32:31.994Z,21.25
2022-08-27T12:35:05.757Z,21.27
2022-08-27T12:37:45.562Z,21.32
2022-08-27T12:40:41.338Z,21.98
2022-08-27T12:43:09.072Z,20.87
2022-08-27T12:45:44.413Z,20.28
2022-08-27T12:48:12.617Z,22.79
2022-08-27T12:50:40.449Z,20.97
2022-08-27T12:53:16.680Z,22.31
2022-08-27T12:56:26.550Z,22.78
2022-08-27T12:59:00.107Z,21.80
2022-08-27T13:01:28.413Z,22.60
2022-08-27T13:03:56.425Z,22.17
2022-08-27T13:06:26.851Z,22.29
2022-08-27T13:08:59.250Z,21.92
2022-08-27T13:11:30.422Z,20.48
2022-08-27T13:14:09.294Z,21.96
2022-08-27T13:16:39.982Z,21.92
2022-08-27T13:19:16.017Z,20.78
2022-08-27T13:21:48.150Z,20.37
2022-08-27T13:24:21.726Z,21.76
2022-08-27T13:26:53.567Z,21.42
2022-08-27T13:29:21.482Z,21.25
2022-08-27T13:31:52.311Z,22.63
2022-08-27T13:34:22.912Z,20.71
2022-08-27T13:37:02.536Z,23.03
2022-08-27T13:39:30.400Z,22.03
2022-08-27T13:41:59.983Z,22.79
2022-08-27T13:44:32.444Z,22.84
2022-08-27T13:47:05.550Z,23.05
2022-08-27T13:49:39.835Z,22.16
2022-08-27T13:52:23.924Z,22.24
2022-08-27T13:55:05.900Z,22.45
2022-08-27T13:57:46.972Z,21.60
2022-08-27T14:00:20.268Z,22.99
2022-08-27T14:02:56.137Z,22.60
2022-08-27T14:05:23.878Z,22.74
2022-08-27T14:07:55.053Z,23.54
2022-08-27T14:10:38.898Z,23.72
2022-08-27T14:13:07.927Z,23.35
2022-08-27T14:15:38.631Z,23.62
2022-08-27T14:18:28.980Z,23.52
2022-08-27T14:21:04.949Z,23.85
2022-08-27T14:23:32.816Z,23.47
2022-08-27T14:26:01.296Z,23.51
2022-08-27T14:28:29.087Z,23.21
2022-08-27T14:30:56.621Z,22.76
2022-08-27T14:33:24.254Z,22.04
2022-08-27T14:35:52.187Z,22.50
2022-08-27T14:38:22.775Z,23.03
2022-08-27T14:40:53.511Z,23.69
2022-08-27T14:43:22.978Z,22.83
2022-08-27T14:45:51.849Z,23.58
2022-08-27T14:48:30.592Z,23.19
2022-08-27T14:50:59.986Z,22.78
2022-08-27T14:53:27.475Z,21.24
2022-08-27T14:55:58.904Z,22.18
2022-08-27T14:58:26.788Z,22.20
2022-08-27T15:00:56.629Z,21.28
2022-08-27T15:03:25.624Z,22.47
2022-08-27T15:05:55.000Z,21.13
2022-08-27T15:08:27.602Z,22.53
2022-08-27T15:10:58.318Z,22.45
2022-08-27T15:13:25.802Z,22.97
2022-08-27T15:15:53.303Z,23.54
2022-08-27T15:18:21.040Z,24.09
2022-08-27T15:20:48.735Z,24.58
2022-08-27T15:23:16.558Z,24.93
2022-08-27T15:25:45.902Z,24.52
2022-08-27T15:28:13.745Z,25.87
2022-08-27T15:30:41.582Z,24.47
2022-08-27T15:33:09.541Z,25.40
2022-08-27T15:35:36.993Z,24.85
2022-08-27T15:38:04.736Z,24.95
2022-08-27T15:40:35.372Z,25.04
2022-08-27T15:43:05.612Z,24.45
2022-08-27T15:45:33.500Z,24.66
2022-08-27T15:48:01.520Z,25.21
2022-08-27T15:50:30.353Z,24.86
2022-08-27T15:53:02.240Z,24.58
2022-08-27T15:55:32.868Z,25.78
2022-08-27T15:58:01.055Z,24.75
2022-08-27T16:00:29.480Z,25.10
2022-08-27T16:02:57.483Z,24.88
2022-08-27T16:05:26.940Z,25.45
2022-08-27T16:07:54.426Z,25.46
2022-08-27T16:10:22.277Z,25.33
2022-08-27T16:12:49.866Z,25.85
2022-08-27T16:15:17.801Z,25.40
2022-08-27T16:17:45.907Z,25.85
2022-08-27T16:20:15.409Z,26.20
2022-08-27T16:22:46.652Z,28.54
2022-08-27T16:25:18.455Z,28.58
2022-08-27T16:27:47.996Z,28.58
2022-08-27T16:30:15.675Z,29.53
2022-08-27T16:32:47.285Z,29.21
2022-08-27T16:35:16.136Z,29.38
2022-08-27T16:37:44.314Z,29.78
2022-08-27T16:40:13.586Z,29.32
2022-08-27T16:42:46.769Z,30.16
2022-08-27T16:45:16.434Z,30.71
2022-08-27T16:48:02.506Z,31.32
2022-08-27T16:50:36.525Z,31.34
2022-08-27T16:53:34.641Z,32.69
2022-08-27T16:56:02.628Z,32.72
2022-08-27T16:58:31.418Z,32.74
2022-08-27T17:01:02.229Z,33.38
2022-08-27T17:03:44.120Z,32.94
2022-08-27T17:06:21.495Z,34.02
2022-08-27T17:08:50.637Z,36.61
2022-08-27T17:11:20.882Z,38.04
2022-08-27T17:13:49.961Z,37.51
2022-08-27T17:16:20.787Z,35.58
2022-08-27T17:18:49.653Z,36.40
2022-08-27T17:21:19.128Z,37.16
2022-08-27T17:23:51.938Z,35.17
2022-08-27T17:26:21.832Z,36.06
2022-08-27T17:28:49.604Z,38.35
2022-08-27T17:31:27.801Z,38.14
2022-08-27T17:33:59.455Z,39.73
2022-08-27T17:36:29.176Z,39.03
2022-08-27T17:38:57.766Z,39.20
2022-08-27T17:41:34.109Z,39.59
2022-08-27T17:44:09.097Z,38.99
2022-08-27T17:46:36.873Z,40.14
2022-08-27T17:49:04.849Z,40.60
2022-08-27T17:51:32.374Z,41.36
2022-08-27T17:54:01.407Z,41.54
2022-08-27T17:56:29.845Z,41.40
2022-08-27T17:58:57.659Z,41.72
2022-08-27T18:01:29.001Z,42.86
2022-08-27T18:03:57.870Z,43.12
2022-08-27T18:06:27.046Z,43.49
2022-08-27T18:08:54.556Z,43.46
2022-08-27T18:11:22.410Z,43.84
2022-08-27T18:13:54.186Z,44.03
2022-08-27T18:16:22.216Z,44.79
2022-08-27T18:18:49.994Z,45.03
2022-08-27T18:21:25.063Z,45.48
2022-08-27T18:23:54.264Z,47.30
2022-08-27T18:26:24.163Z,47.11
2022-08-27T18:28:51.587Z,47.72
2022-08-27T18:31:20.330Z,47.81
2022-08-27T18:33:47.975Z,48.33
2022-08-27T18:36:16.284Z,49.38
2022-08-27T18:38:47.021Z,49.53
2022-08-27T18:41:14.758Z,49.88
2022-08-27T18:43:42.580Z,49.19
2022-08-27T18:46:11.075Z,49.42
2022-08-27T18:48:38.748Z,48.89
2022-08-27T18:51:07.771Z,48.79
2022-08-27T18:53:39.872Z,48.50
2022-08-27T18:56:09.257Z,48.50
2022-08-27T18:58:38.861Z,48.73
2022-08-27T19:01:09.679Z,49.01
2022-08-27T19:03:44.597Z,49.31
2022-08-27T19:06:12.739Z,50.45
2022-08-27T19:08:40.695Z,50.49
2022-08-27T19:11:08.275Z,49.97
2022-08-27T19:13:36.450Z,49.91
2022-08-27T19:16:06.734Z,50.02
2022-08-27T19:18:35.882Z,50.29
2022-08-27T19:21:04.923Z,50.19
2022-08-27T19:23:32.400Z,49.89
2022-08-27T19:26:00.528Z,49.65
2022-08-27T19:28:39.815Z,49.61
2022-08-27T19:31:08.374Z,49.50
2022-08-27T19:33:36.160Z,49.24
2022-08-27T19:36:04.993Z,50.69
2022-08-27T19:38:33.061Z,49.86
2022-08-27T19:41:01.882Z,51.15
2022-08-27T19:43:29.454Z,51.09
2022-08-27T19:45:58.808Z,52.59
2022-08-27T19:48:26.650Z,51.65
2022-08-27T19:50:55.918Z,51.08
2022-08-27T19:53:24.212Z,51.08
2022-08-27T19:55:51.936Z,52.14
2022-08-27T19:58:20.198Z,53.63
2022-08-27T20:00:48.440Z,54.27
2022-08-27T20:03:16.684Z,54.24
2022-08-27T20:05:45.892Z,54.51
2022-08-27T20:08:13.510Z,54.88
2022-08-27T20:10:42.118Z,55.43
2022-08-27T20:13:09.724Z,55.33
2022-08-27T20:15:39.050Z,55.29
2022-08-27T20:18:09.005Z,55.79
2022-08-27T20:20:36.967Z,55.13
2022-08-27T20:23:05.340Z,54.34
2022-08-27T20:25:34.623Z,53.36
2022-08-27T20:28:16.413Z,52.78
2022-08-27T20:30:50.121Z,52.18
2022-08-27T20:33:17.980Z,50.77
2022-08-27T20:35:45.463Z,52.05
2022-08-27T20:38:13.329Z,52.21
2022-08-27T20:40:41.039Z,52.32
2022-08-27T20:43:08.616Z,55.91
2022-08-27T20:45:37.417Z,55.35
2022-08-27T20:48:05.177Z,57.54
2022-08-27T20:50:32.716Z,58.07
2022-08-27T20:53:00.893Z,57.78
2022-08-27T20:55:28.808Z,59.05
2022-08-27T20:58:15.523Z,59.38
2022-08-27T21:00:43.841Z,57.84
2022-08-27T21:03:13.959Z,58.84
2022-08-27T21:05:43.709Z,59.74
2022-08-27T21:08:12.111Z,61.38
2022-08-27T21:10:45.701Z,62.27
2022-08-27T21:13:14.078Z,63.54
2022-08-27T21:15:41.693Z,64.33
2022-08-27T21:18:09.319Z,62.63
2022-08-27T21:20:37.053Z,63.35
2022-08-27T21:23:04.434Z,61.49
2022-08-27T21:25:32.006Z,60.34
2022-08-27T21:28:00.966Z,62.30
2022-08-27T21:30:28.401Z,60.03
2022-08-27T21:32:56.207Z,59.70
2022-08-27T21:35:29.321Z,60.29
2022-08-27T21:37:58.208Z,59.97
2022-08-27T21:40:28.067Z,60.28
2022-08-27T21:42:57.439Z,60.19
2022-08-27T21:45:25.360Z,58.04
2022-08-27T21:47:54.163Z,56.34
2022-08-27T21:50:22.566Z,56.15
2022-08-27T21:52:50.623Z,57.59
2022-08-27T21:55:18.821Z,57.23
2022-08-27T21:57:46.234Z,59.99
2022-08-27T22:00:29.225Z,62.52
2022-08-27T22:02:57.317Z,62.57
2022-08-27T22:05:24.927Z,64.54
2022-08-27T22:07:52.336Z,64.25
2022-08-27T22:10:20.311Z,63.56
2022-08-27T22:12:47.816Z,62.79
2022-08-27T22:15:15.231Z,60.45
2022-08-27T22:17:42.941Z,59.32
2022-08-27T22:20:11.057Z,60.57
2022-08-27T22:22:38.903Z,59.80
2022-08-27T22:25:07.764Z,57.48
2022-08-27T22:27:35.329Z,57.98
2022-08-27T22:30:02.820Z,58.35
2022-08-27T22:32:30.818Z,58.77
2022-08-27T22:34:58.940Z,62.41
2022-08-27T22:37:26.687Z,62.84
2022-08-27T22:39:55.913Z,62.32
2022-08-27T22:42:23.558Z,62.83
2022-08-27T22:44:53.903Z,62.82
2022-08-27T22:47:21.513Z,64.18
2022-08-27T22:49:48.948Z,65.26
2022-08-27T22:52:21.291Z,64.78
2022-08-27T22:54:55.452Z,62.15
2022-08-27T22:57:23.258Z,62.45
2022-08-27T22:59:50.688Z,61.42
2022-08-27T23:02:18.725Z,61.71
2022-08-27T23:04:54.993Z,60.09
2022-08-27T23:07:24.724Z,61.44
2022-08-27T23:09:52.994Z,60.41
2022-08-27T23:12:20.572Z,59.60
2022-08-27T23:14:48.058Z,58.47
2022-08-27T23:17:16.212Z,60.19
2022-08-27T23:19:44.471Z,67.11
2022-08-27T23:22:11.942Z,62.73
2022-08-27T23:24:59.599Z,61.52
2022-08-27T23:27:29.874Z,61.57
2022-08-27T23:29:59.296Z,66.02
2022-08-27T23:32:27.397Z,71.92
2022-08-27T23:34:55.201Z,68.80
2022-08-27T23:37:23.967Z,70.15
2022-08-27T23:39:51.544Z,68.89
2022-08-27T23:42:19.703Z,65.21
2022-08-27T23:44:48.899Z,57.66
2022-08-27T23:47:16.998Z,56.29
2022-08-27T23:49:44.589Z,58.98
2022-08-27T23:52:12.964Z,63.85
2022-08-27T23:54:40.341Z,63.71
2022-08-27T23:57:07.844Z,63.37
2022-08-27T23:59:35.800Z,64.68
